Time;durP1;ratioP1;P1;durP2;ratioP2;P2;SDS_P1;SDS_P2;PMS_P1;PMS_P2;Temp;Humidity;BMP_temperature;BMP_pressure;BME280_temperature;BME280_humidity;BME280_pressure;Samples;Min_cycle;Max_cycle;Signal;HPM_P1;HPM_P2
2022/08/08 00:00:09;;;;;;;3.13;2.70;;;22.30;45.10;;;;;;5030358;28;20204;-89
2022/08/08 00:03:00;;;;;;;2.60;2.50;;;22.40;45.10;;;;;;5047759;28;20688;-89
2022/08/08 00:05:38;;;;;;;2.80;2.60;;;22.60;45.00;;;;;;5058044;28;20261;-88
2022/08/08 00:08:06;;;;;;;2.75;2.65;;;22.70;44.30;;;;;;5027663;28;20188;-89
2022/08/08 00:10:45;;;;;;;2.80;2.60;;;22.70;44.40;;;;;;5052997;28;20283;-89
2022/08/08 00:13:25;;;;;;;2.92;2.72;;;22.70;44.20;;;;;;5049434;28;20188;-88
2022/08/08 00:16:06;;;;;;;2.58;2.47;;;22.70;44.10;;;;;;5058562;28;20177;-89
2022/08/08 00:18:38;;;;;;;2.78;2.63;;;22.90;43.80;;;;;;5066441;28;20169;-89
2022/08/08 00:21:05;;;;;;;3.10;2.90;;;22.90;43.40;;;;;;5058023;28;20189;-88
2022/08/08 00:23:40;;;;;;;2.90;2.67;;;22.90;43.30;;;;;;5050544;28;20274;-88
2022/08/08 00:26:09;;;;;;;2.80;2.60;;;22.70;43.70;;;;;;5049218;28;20214;-89
2022/08/08 00:28:47;;;;;;;2.85;2.65;;;22.50;44.30;;;;;;5050358;28;20210;-88
2022/08/08 00:31:45;;;;;;;3.65;2.67;;;22.00;45.30;;;;;;5057449;28;20184;-89
2022/08/08 00:37:29;;;;;;;2.50;2.40;;;21.70;46.90;;;;;;5060256;28;20163;-86
2022/08/08 00:40:27;;;;;;;2.85;2.65;;;21.90;46.60;;;;;;5072806;28;20211;-86
2022/08/08 00:42:53;;;;;;;2.60;2.50;;;22.00;46.10;;;;;;5033456;28;20191;-87
2022/08/08 00:45:37;;;;;;;2.97;2.78;;;22.20;45.70;;;;;;5049185;28;20208;-88
2022/08/08 00:48:14;;;;;;;2.70;2.50;;;22.10;45.80;;;;;;5036485;28;20187;-87
2022/08/08 00:51:07;;;;;;;2.80;2.60;;;22.10;45.70;;;;;;5055466;28;20196;-88
2022/08/08 00:53:39;;;;;;;2.72;2.53;;;22.10;45.70;;;;;;5035561;28;20202;-88
2022/08/08 00:56:35;;;;;;;3.03;2.80;;;22.10;45.70;;;;;;5056454;28;20196;-87
2022/08/08 00:59:38;;;;;;;3.13;2.72;;;22.00;46.00;;;;;;5060345;28;20286;-87
2022/08/08 01:02:44;;;;;;;3.10;2.80;;;22.00;46.30;;;;;;5040000;28;20191;-88
2022/08/08 01:05:13;;;;;;;2.80;2.50;;;21.90;46.70;;;;;;5036474;28;20192;-86
2022/08/08 01:07:57;;;;;;;2.97;2.78;;;21.90;46.80;;;;;;5054821;28;20192;-87
2022/08/08 01:10:52;;;;;;;2.80;2.70;;;21.80;46.60;;;;;;5054706;28;20200;-88
2022/08/08 01:13:46;;;;;;;2.50;2.40;;;22.00;46.20;;;;;;5053161;28;20199;-88
2022/08/08 01:16:33;;;;;;;2.78;2.58;;;22.00;46.10;;;;;;5037088;28;20184;-87
2022/08/08 01:19:08;;;;;;;3.08;2.88;;;22.10;46.00;;;;;;5038900;28;20761;-87
2022/08/08 01:21:56;;;;;;;3.03;2.83;;;22.20;45.80;;;;;;5056771;28;20583;-88
2022/08/08 01:24:40;;;;;;;2.70;2.60;;;22.20;45.80;;;;;;5034021;28;20190;-87
2022/08/08 01:27:52;;;;;;;2.75;2.55;;;22.20;45.50;;;;;;5053570;28;20184;-88
2022/08/08 01:30:32;;;;;;;3.70;2.72;;;22.20;45.40;;;;;;5052904;28;20231;-87
2022/08/08 01:33:07;;;;;;;2.80;2.70;;;21.70;46.30;;;;;;5032733;28;20202;-87
2022/08/08 01:35:33;;;;;;;2.85;2.65;;;21.50;47.20;;;;;;5051456;28;20246;-87
2022/08/08 01:38:21;;;;;;;2.90;2.70;;;21.30;47.20;;;;;;5060949;28;20184;-88
2022/08/08 01:41:12;;;;;;;3.10;2.78;;;21.10;48.00;;;;;;5023217;28;20681;-87
2022/08/08 01:44:06;;;;;;;3.10;2.60;;;21.00;48.20;;;;;;5051142;28;20237;-87
2022/08/08 01:46:56;;;;;;;2.80;2.63;;;20.80;48.40;;;;;;5015801;28;20243;-87
2022/08/08 01:49:30;;;;;;;3.03;2.72;;;20.70;49.10;;;;;;5039419;28;20298;-87
2022/08/08 01:52:11;;;;;;;2.70;2.50;;;20.60;49.20;;;;;;5057692;28;20671;-87
2022/08/08 01:55:03;;;;;;;2.92;2.72;;;20.40;50.00;;;;;;5032026;28;20208;-87
2022/08/08 01:57:33;;;;;;;2.72;2.53;;;20.00;51.70;;;;;;5035411;28;20187;-88
2022/08/08 02:00:16;;;;;;;2.75;2.55;;;19.80;53.10;;;;;;5054051;28;20241;-88
2022/08/08 02:02:57;;;;;;;2.90;2.70;;;19.70;53.90;;;;;;5034828;28;20648;-88
2022/08/08 02:05:44;;;;;;;2.67;2.47;;;19.80;52.80;;;;;;5038893;28;20180;-88
2022/08/08 02:08:20;;;;;;;3.00;2.75;;;19.90;52.30;;;;;;5046995;28;20172;-88
2022/08/08 02:11:19;;;;;;;2.85;2.65;;;20.00;52.00;;;;;;5033893;28;20274;-88
2022/08/08 02:13:52;;;;;;;2.78;2.55;;;20.10;49.40;;;;;;5050782;28;20199;-86
2022/08/08 02:16:58;;;;;;;2.72;2.50;;;20.20;50.00;;;;;;5059269;28;20192;-86
2022/08/08 02:19:30;;;;;;;2.38;2.28;;;20.30;48.50;;;;;;5055629;28;20204;-85
2022/08/08 02:25:11;;;;;;;4.55;2.60;;;20.30;49.60;;;;;;5051856;28;20199;-85
2022/08/08 02:28:13;;;;;;;3.50;2.58;;;20.40;49.50;;;;;;5052677;28;20204;-85
2022/08/08 02:30:50;;;;;;;2.53;2.42;;;20.50;48.90;;;;;;5053540;28;20267;-85
2022/08/08 02:33:34;;;;;;;3.40;2.80;;;20.70;48.60;;;;;;5053052;28;20189;-85
2022/08/08 02:36:11;;;;;;;2.63;2.40;;;20.80;47.70;;;;;;5057457;28;20178;-86
2022/08/08 02:39:16;;;;;;;3.25;2.72;;;20.80;48.20;;;;;;5054783;28;20449;-86
2022/08/08 02:41:47;;;;;;;4.70;2.83;;;20.80;47.00;;;;;;5062641;28;20180;-85
2022/08/08 02:44:50;;;;;;;3.08;2.78;;;20.80;47.00;;;;;;5064439;28;20212;-85
2022/08/08 02:47:53;;;;;;;2.80;2.60;;;20.70;46.10;;;;;;5043494;28;20193;-84
2022/08/08 02:50:52;;;;;;;2.53;2.40;;;20.30;46.00;;;;;;5070626;28;20201;-84
2022/08/08 02:53:33;;;;;;;2.80;2.60;;;20.20;47.10;;;;;;5066282;28;20184;-85
2022/08/08 02:56:23;;;;;;;2.67;2.47;;;20.30;49.10;;;;;;5054159;28;20877;-86
2022/08/08 02:59:26;;;;;;;3.05;2.80;;;20.30;48.00;;;;;;5061945;28;20660;-86
2022/08/08 03:02:10;;;;;;;2.88;2.70;;;20.40;48.10;;;;;;5054756;28;20180;-86
2022/08/08 03:04:58;;;;;;;2.70;2.50;;;20.40;49.50;;;;;;5035804;28;20257;-86
2022/08/08 03:07:42;;;;;;;2.80;2.60;;;20.50;47.00;;;;;;5049435;28;20192;-85
2022/08/08 03:10:36;;;;;;;3.65;2.60;;;20.50;47.60;;;;;;5050765;28;20203;-85
2022/08/08 03:13:14;;;;;;;3.03;2.80;;;20.70;46.20;;;;;;5043394;28;20193;-86
2022/08/08 03:15:49;;;;;;;2.95;2.65;;;20.70;47.40;;;;;;5059340;28;20256;-86
2022/08/08 03:18:42;;;;;;;3.17;2.75;;;20.80;46.40;;;;;;5045253;28;20663;-86
2022/08/08 03:21:08;;;;;;;3.45;2.90;;;20.70;47.30;;;;;;5034837;28;20179;-86
2022/08/08 03:23:34;;;;;;;2.55;2.35;;;20.60;47.20;;;;;;5059165;28;20366;-84
2022/08/08 03:26:00;;;;;;;3.28;2.58;;;20.60;46.90;;;;;;5051349;28;20197;-85
2022/08/08 03:28:26;;;;;;;3.47;2.83;;;20.70;46.50;;;;;;5039089;28;20191;-85
2022/08/08 03:30:52;;;;;;;4.47;2.75;;;20.70;45.30;;;;;;5058202;28;20175;-85
2022/08/08 03:33:18;;;;;;;5.15;4.75;;;20.60;46.50;;;;;;5054222;28;20179;-86
2022/08/08 03:35:46;;;;;;;3.00;2.80;;;20.70;45.50;;;;;;5060659;28;20631;-85
2022/08/08 03:38:13;;;;;;;3.10;2.80;;;20.80;45.20;;;;;;5054218;28;20223;-86
2022/08/08 03:40:39;;;;;;;2.92;2.67;;;20.90;44.90;;;;;;5054638;28;20226;-85
2022/08/08 03:43:09;;;;;;;2.80;2.60;;;21.00;44.70;;;;;;5055794;28;20193;-86
2022/08/08 03:45:36;;;;;;;2.67;2.47;;;21.10;44.30;;;;;;5042287;28;20215;-86
2022/08/08 03:48:07;;;;;;;3.00;2.80;;;21.10;44.30;;;;;;5058938;28;20296;-87
2022/08/08 03:50:39;;;;;;;2.88;2.50;;;20.90;45.20;;;;;;5054851;28;20203;-86
2022/08/08 03:53:13;;;;;;;2.63;2.50;;;20.90;46.70;;;;;;5040222;28;20192;-85
2022/08/08 03:55:41;;;;;;;4.05;2.80;;;20.80;47.50;;;;;;5056158;28;20345;-85
2022/08/08 03:58:07;;;;;;;2.92;2.72;;;20.60;48.40;;;;;;5046142;28;20194;-86
2022/08/08 04:00:34;;;;;;;2.95;2.65;;;20.30;49.10;;;;;;5022667;28;20210;-86
2022/08/08 04:03:02;;;;;;;2.97;2.78;;;20.00;49.60;;;;;;5025054;28;20178;-87
2022/08/08 04:05:34;;;;;;;2.53;2.42;;;19.70;50.60;;;;;;5056853;28;20196;-84
2022/08/08 04:08:01;;;;;;;2.63;2.42;;;19.40;51.90;;;;;;5034300;28;20720;-85
2022/08/08 04:10:28;;;;;;;2.33;2.22;;;19.10;52.90;;;;;;5038559;28;20236;-84
2022/08/08 04:12:55;;;;;;;2.70;2.50;;;19.00;53.30;;;;;;5046491;28;20193;-85
2022/08/08 04:15:21;;;;;;;2.67;2.47;;;19.10;52.80;;;;;;5056558;28;20206;-84
2022/08/08 04:17:47;;;;;;;2.80;2.60;;;19.40;51.90;;;;;;5057771;28;20208;-85
2022/08/08 04:20:13;;;;;;;4.47;2.80;;;19.70;51.20;;;;;;5053672;28;20220;-85
2022/08/08 04:22:40;;;;;;;2.50;2.40;;;19.80;50.90;;;;;;5064584;28;20264;-84
2022/08/08 04:25:07;;;;;;;4.47;2.63;;;19.90;50.30;;;;;;5054923;28;20194;-83
2022/08/08 04:27:34;;;;;;;6.10;3.25;;;20.10;50.00;;;;;;5066631;28;20192;-84
2022/08/08 04:30:05;;;;;;;2.92;2.72;;;20.00;50.00;;;;;;5050294;28;20276;-86
2022/08/08 04:32:31;;;;;;;3.63;2.67;;;19.80;50.80;;;;;;5046841;28;20164;-86
2022/08/08 04:35:00;;;;;;;2.92;2.72;;;19.80;51.40;;;;;;5055638;28;20227;-87
2022/08/08 04:37:25;;;;;;;2.97;2.75;;;19.70;51.30;;;;;;5060418;28;20181;-87
2022/08/08 04:39:51;;;;;;;2.70;2.50;;;19.50;51.80;;;;;;5055685;28;20546;-86
2022/08/08 04:42:17;;;;;;;4.32;2.75;;;19.60;51.30;;;;;;5040660;28;20188;-87
2022/08/08 04:44:43;;;;;;;3.58;2.70;;;19.40;52.20;;;;;;5038954;28;20188;-87
2022/08/08 04:47:08;;;;;;;3.10;2.72;;;19.20;53.10;;;;;;5044971;28;20181;-87
2022/08/08 04:49:34;;;;;;;3.63;2.60;;;19.20;53.10;;;;;;5061244;28;20219;-86
2022/08/08 04:52:00;;;;;;;2.58;2.38;;;19.40;53.00;;;;;;5042751;28;20250;-85
2022/08/08 04:54:26;;;;;;;4.22;2.90;;;19.50;52.10;;;;;;5042306;28;20201;-86
2022/08/08 04:56:51;;;;;;;4.75;2.60;;;19.70;50.80;;;;;;5062463;28;20200;-85
2022/08/08 04:59:17;;;;;;;2.70;2.50;;;19.70;51.30;;;;;;5058259;28;20818;-86
2022/08/08 05:01:43;;;;;;;2.60;2.40;;;19.60;50.80;;;;;;5048653;28;20249;-86
2022/08/08 05:04:09;;;;;;;3.20;2.40;;;19.50;51.40;;;;;;5044706;28;20247;-85
2022/08/08 05:06:34;;;;;;;3.33;2.47;;;19.30;51.90;;;;;;5043846;28;20267;-84
2022/08/08 05:09:01;;;;;;;3.92;2.58;;;19.30;52.30;;;;;;5061847;28;20219;-85
2022/08/08 05:11:26;;;;;;;2.50;2.30;;;19.40;52.70;;;;;;5037368;28;20556;-85
2022/08/08 05:13:53;;;;;;;3.63;2.50;;;19.30;52.80;;;;;;5055054;28;20196;-85
2022/08/08 05:16:18;;;;;;;2.58;2.38;;;19.50;52.00;;;;;;5053059;28;20188;-85
2022/08/08 05:18:44;;;;;;;3.03;2.42;;;19.50;48.80;;;;;;5038392;28;20232;-86
2022/08/08 05:21:10;;;;;;;3.83;2.55;;;19.50;49.90;;;;;;5065942;28;20187;-85
2022/08/08 05:23:36;;;;;;;2.55;2.35;;;19.50;48.90;;;;;;5059700;28;20188;-85
2022/08/08 05:26:02;;;;;;;2.63;2.42;;;19.50;48.80;;;;;;5060914;28;20181;-85
2022/08/08 05:28:28;;;;;;;3.20;2.30;;;19.50;49.00;;;;;;5044456;28;20841;-87
2022/08/08 05:30:57;;;;;;;2.90;2.63;;;19.50;49.90;;;;;;5053022;28;20172;-85
2022/08/08 05:33:23;;;;;;;2.53;2.33;;;19.50;49.40;;;;;;5033923;28;20184;-86
2022/08/08 05:35:53;;;;;;;2.67;2.50;;;19.50;48.40;;;;;;5018933;28;20204;-86
2022/08/08 05:38:22;;;;;;;2.60;2.40;;;19.60;48.70;;;;;;5042105;28;20189;-85
2022/08/08 05:40:50;;;;;;;3.38;2.30;;;19.70;47.80;;;;;;5032223;28;20213;-85
2022/08/08 05:43:28;;;;;;;2.85;2.65;;;19.80;46.00;;;;;;5037289;28;20707;-85
2022/08/08 05:45:59;;;;;;;2.58;2.25;;;19.80;45.40;;;;;;5034642;28;20188;-86
2022/08/08 05:48:25;;;;;;;2.53;2.42;;;19.70;45.50;;;;;;5031247;28;20197;-85
2022/08/08 05:50:51;;;;;;;2.67;2.47;;;19.70;46.10;;;;;;5041567;28;20206;-85
2022/08/08 05:53:24;;;;;;;2.38;2.28;;;19.70;45.70;;;;;;5062813;28;20199;-86
2022/08/08 05:55:51;;;;;;;2.78;2.45;;;19.60;45.80;;;;;;5052387;28;20300;-85
2022/08/08 05:58:19;;;;;;;2.45;2.30;;;19.70;46.50;;;;;;5052160;28;20176;-85
2022/08/08 06:00:47;;;;;;;2.47;2.28;;;19.60;46.00;;;;;;5053950;28;20793;-85
2022/08/08 06:03:15;;;;;;;2.40;2.30;;;19.50;46.40;;;;;;5039850;28;20173;-85
2022/08/08 06:05:57;;;;;;;4.50;2.60;;;19.50;46.60;;;;;;5044046;28;20291;-85
2022/08/08 06:08:24;;;;;;;2.70;2.50;;;19.50;47.00;;;;;;5036325;28;20191;-85
2022/08/08 06:10:53;;;;;;;2.67;2.47;;;19.40;47.30;;;;;;5054324;28;20185;-85
2022/08/08 06:13:19;;;;;;;3.20;2.20;;;19.40;47.20;;;;;;5052389;28;20256;-85
2022/08/08 06:15:48;;;;;;;5.18;2.80;;;19.50;47.10;;;;;;5056699;28;20219;-85
2022/08/08 06:18:17;;;;;;;6.63;2.53;;;19.60;47.10;;;;;;5062674;28;20186;-84
2022/08/08 06:20:44;;;;;;;2.35;2.25;;;19.80;46.20;;;;;;5046364;28;20196;-84
2022/08/08 06:23:11;;;;;;;3.35;2.58;;;19.90;45.90;;;;;;5056848;28;20192;-85
2022/08/08 06:25:41;;;;;;;2.58;2.40;;;20.10;45.40;;;;;;5052183;28;20211;-85
2022/08/08 06:28:28;;;;;;;2.40;2.30;;;20.20;46.10;;;;;;5049827;28;20825;-86
2022/08/08 06:30:57;;;;;;;2.90;2.70;;;20.40;44.40;;;;;;5053867;28;20211;-86
2022/08/08 06:33:31;;;;;;;2.67;2.47;;;20.30;44.10;;;;;;5050103;28;20199;-85
2022/08/08 06:35:58;;;;;;;4.18;2.78;;;20.30;45.00;;;;;;5051240;28;20216;-86
2022/08/08 06:38:27;;;;;;;2.75;2.55;;;20.20;45.00;;;;;;5047696;28;20216;-85
2022/08/08 06:40:59;;;;;;;3.58;2.60;;;20.20;45.00;;;;;;5052218;28;20212;-85
2022/08/08 06:43:30;;;;;;;2.67;2.40;;;20.20;44.80;;;;;;5054191;28;20180;-85
2022/08/08 06:45:56;;;;;;;2.85;2.60;;;20.40;44.00;;;;;;5044209;28;20189;-85
2022/08/08 06:48:22;;;;;;;3.55;2.85;;;20.40;43.70;;;;;;5049591;28;20207;-85
2022/08/08 06:50:49;;;;;;;3.28;2.50;;;20.60;43.30;;;;;;5035512;28;20194;-85
2022/08/08 06:53:16;;;;;;;3.45;2.75;;;20.70;43.40;;;;;;5057998;28;20683;-85
2022/08/08 06:55:43;;;;;;;2.80;2.60;;;20.70;42.60;;;;;;5038908;28;20292;-85
2022/08/08 06:58:08;;;;;;;2.70;2.50;;;20.70;41.80;;;;;;5053308;28;20787;-85
2022/08/08 07:00:41;;;;;;;2.47;2.28;;;20.80;40.80;;;;;;5047741;28;20221;-85
2022/08/08 07:03:16;;;;;;;2.80;2.60;;;20.90;41.30;;;;;;5053824;28;20195;-85
2022/08/08 07:05:49;;;;;;;2.58;2.38;;;21.00;40.80;;;;;;5054320;28;20221;-85
2022/08/08 07:08:22;;;;;;;3.10;2.90;;;21.10;39.70;;;;;;5050181;28;20261;-86
2022/08/08 07:10:49;;;;;;;3.03;2.78;;;21.20;40.10;;;;;;5053393;28;20224;-85
2022/08/08 07:13:17;;;;;;;3.00;2.80;;;21.30;40.00;;;;;;5054431;28;20185;-85
2022/08/08 07:15:46;;;;;;;2.55;2.35;;;21.30;40.40;;;;;;5036455;28;20255;-86
2022/08/08 07:18:20;;;;;;;2.85;2.65;;;21.20;40.10;;;;;;5051962;28;20204;-85
2022/08/08 07:20:51;;;;;;;3.55;2.58;;;21.30;39.80;;;;;;5055276;28;20728;-85
2022/08/08 07:23:22;;;;;;;2.47;2.38;;;21.30;40.00;;;;;;5045636;28;20196;-85
2022/08/08 07:25:50;;;;;;;3.17;2.40;;;21.30;39.50;;;;;;5048115;28;20188;-85
2022/08/08 07:28:21;;;;;;;3.13;2.40;;;21.40;39.70;;;;;;5046508;28;20192;-85
2022/08/08 07:30:47;;;;;;;2.65;2.47;;;21.60;40.00;;;;;;5056316;28;20201;-85
2022/08/08 07:33:14;;;;;;;3.50;3.05;;;21.80;39.40;;;;;;5054407;28;20192;-85
2022/08/08 07:35:40;;;;;;;2.58;2.47;;;21.90;39.80;;;;;;5053745;28;20203;-85
2022/08/08 07:38:09;;;;;;;3.15;2.60;;;21.90;38.40;;;;;;5033502;28;20200;-85
2022/08/08 07:40:36;;;;;;;2.55;2.42;;;21.80;38.40;;;;;;5054080;28;20209;-85
2022/08/08 07:43:03;;;;;;;2.72;2.53;;;22.00;38.40;;;;;;5051876;28;20206;-85
2022/08/08 07:45:29;;;;;;;2.40;2.30;;;22.20;38.70;;;;;;5045488;28;20217;-85
2022/08/08 07:47:57;;;;;;;3.15;2.67;;;22.40;38.10;;;;;;5056318;28;20198;-85
2022/08/08 07:50:24;;;;;;;4.55;2.60;;;22.40;37.50;;;;;;5052219;28;20207;-85
2022/08/08 07:52:55;;;;;;;3.00;2.80;;;22.50;37.70;;;;;;5036880;28;20196;-85
2022/08/08 07:55:27;;;;;;;2.63;2.40;;;22.60;38.10;;;;;;5034169;28;20224;-85
2022/08/08 07:58:22;;;;;;;2.78;2.67;;;22.70;38.10;;;;;;5055910;28;20191;-85
2022/08/08 08:00:54;;;;;;;5.25;2.90;;;22.80;36.90;;;;;;5054702;28;20180;-85
2022/08/08 08:03:39;;;;;;;3.35;2.70;;;23.00;36.80;;;;;;5055616;28;20183;-85
2022/08/08 08:06:05;;;;;;;2.90;2.60;;;23.10;37.10;;;;;;5055838;28;20204;-85
2022/08/08 08:08:39;;;;;;;4.00;2.97;;;23.10;37.30;;;;;;5052295;28;20184;-85
2022/08/08 08:11:13;;;;;;;2.80;2.60;;;23.20;37.10;;;;;;5051964;28;20180;-85
2022/08/08 08:13:49;;;;;;;3.00;2.80;;;23.40;37.00;;;;;;5053364;28;20272;-85
2022/08/08 08:16:27;;;;;;;3.05;2.72;;;23.50;36.50;;;;;;5059013;28;20190;-83
2022/08/08 08:18:54;;;;;;;3.17;2.75;;;23.40;36.20;;;;;;5068743;28;20254;-83
2022/08/08 08:21:22;;;;;;;3.00;2.70;;;23.60;36.80;;;;;;5074189;28;20172;-84
2022/08/08 08:23:47;;;;;;;2.97;2.67;;;23.80;36.60;;;;;;5068266;28;20195;-83
2022/08/08 08:26:13;;;;;;;3.33;2.97;;;24.00;35.90;;;;;;5033287;28;20180;-85
2022/08/08 08:28:40;;;;;;;3.03;2.67;;;24.00;35.90;;;;;;5055383;28;20200;-85
2022/08/08 08:31:06;;;;;;;3.88;2.95;;;24.00;36.30;;;;;;5042246;28;20219;-87
2022/08/08 08:33:32;;;;;;;6.15;2.75;;;24.10;36.40;;;;;;5053742;28;20259;-85
2022/08/08 08:35:59;;;;;;;3.22;2.92;;;24.10;36.40;;;;;;5052436;28;20215;-84
2022/08/08 08:38:24;;;;;;;6.78;2.65;;;24.00;36.40;;;;;;5045591;28;20200;-87
2022/08/08 08:40:50;;;;;;;3.17;2.70;;;24.10;36.50;;;;;;5045444;28;20176;-85
2022/08/08 08:43:17;;;;;;;3.10;2.90;;;24.00;36.40;;;;;;5052122;28;20173;-85
2022/08/08 08:45:43;;;;;;;4.68;3.00;;;24.00;36.90;;;;;;5048119;28;20188;-86
2022/08/08 08:48:09;;;;;;;4.05;3.10;;;24.20;36.60;;;;;;5045435;28;20192;-86
2022/08/08 08:50:37;;;;;;;5.22;2.88;;;24.30;36.80;;;;;;5047555;28;20216;-86
2022/08/08 08:53:05;;;;;;;3.42;3.00;;;24.20;36.70;;;;;;5048355;28;20212;-86
2022/08/08 08:55:34;;;;;;;3.20;2.70;;;24.30;36.50;;;;;;5024433;28;20216;-87
2022/08/08 08:58:02;;;;;;;2.97;2.78;;;24.50;36.30;;;;;;5023876;28;20213;-85
2022/08/08 09:00:28;;;;;;;2.80;2.60;;;24.60;36.60;;;;;;5025797;28;20236;-86
2022/08/08 09:02:57;;;;;;;3.60;2.85;;;24.80;36.20;;;;;;5027364;28;20192;-86
2022/08/08 09:05:25;;;;;;;3.25;3.00;;;25.10;36.00;;;;;;5042718;28;20593;-87
2022/08/08 09:07:54;;;;;;;4.15;3.00;;;25.10;35.30;;;;;;5022024;28;20847;-87
2022/08/08 09:10:22;;;;;;;3.60;3.15;;;25.30;35.10;;;;;;5038562;28;20209;-86
2022/08/08 09:12:49;;;;;;;3.33;3.03;;;25.50;35.00;;;;;;5020861;28;20657;-88
2022/08/08 09:15:15;;;;;;;4.28;3.13;;;25.60;35.20;;;;;;5046543;28;20238;-86
2022/08/08 09:17:41;;;;;;;4.45;3.30;;;25.80;34.20;;;;;;5046488;28;20181;-86
2022/08/08 09:20:09;;;;;;;3.95;3.30;;;25.90;33.90;;;;;;5031981;28;20587;-85
2022/08/08 09:22:36;;;;;;;3.05;2.85;;;25.90;34.40;;;;;;5046718;28;20208;-85
2022/08/08 09:25:03;;;;;;;3.15;2.95;;;26.00;35.30;;;;;;5045126;28;20192;-85
2022/08/08 09:27:30;;;;;;;3.47;3.28;;;26.10;34.50;;;;;;5047292;28;20953;-84
2022/08/08 09:30:08;;;;;;;3.28;3.00;;;26.20;34.90;;;;;;5032711;28;20220;-86
2022/08/08 09:32:36;;;;;;;3.30;3.10;;;26.40;34.30;;;;;;5026666;28;20700;-86
2022/08/08 09:35:09;;;;;;;3.55;3.25;;;26.20;34.50;;;;;;5042816;28;20236;-85
2022/08/08 09:37:55;;;;;;;3.60;3.03;;;26.40;34.00;;;;;;5048006;28;20177;-85
2022/08/08 09:40:23;;;;;;;3.55;3.25;;;26.60;34.30;;;;;;5044942;28;20236;-86
2022/08/08 09:43:01;;;;;;;4.32;3.38;;;26.90;33.70;;;;;;5046292;28;20226;-86
2022/08/08 09:45:59;;;;;;;3.30;3.10;;;26.90;33.30;;;;;;5025992;28;20187;-86
2022/08/08 09:48:29;;;;;;;4.97;3.22;;;27.00;33.70;;;;;;5047564;28;20291;-87
2022/08/08 09:50:56;;;;;;;4.68;3.72;;;26.90;33.70;;;;;;5034826;28;20408;-86
2022/08/08 09:53:29;;;;;;;3.92;3.72;;;27.30;34.30;;;;;;5036812;28;20215;-86
2022/08/08 09:55:55;;;;;;;3.40;3.10;;;27.50;33.40;;;;;;5034240;28;20215;-85
2022/08/08 09:58:23;;;;;;;3.47;3.17;;;27.50;32.50;;;;;;5055776;28;20256;-87
2022/08/08 10:00:53;;;;;;;4.28;3.20;;;27.80;32.40;;;;;;5033886;28;20211;-86
2022/08/08 10:03:29;;;;;;;5.15;3.40;;;28.20;32.50;;;;;;5046506;28;20189;-85
2022/08/08 10:05:58;;;;;;;3.85;3.60;;;28.40;32.00;;;;;;5013319;28;20253;-87
2022/08/08 10:08:24;;;;;;;3.70;3.33;;;28.40;31.30;;;;;;5028458;28;20200;-88
2022/08/08 10:11:17;;;;;;;3.70;3.00;;;28.50;31.00;;;;;;4998416;28;20303;-85
2022/08/08 10:14:00;;;;;;;4.00;3.70;;;28.40;31.40;;;;;;5031668;28;20234;-85
2022/08/08 10:16:37;;;;;;;4.55;3.15;;;28.90;31.80;;;;;;5028333;28;20199;-86
2022/08/08 10:19:05;;;;;;;3.80;3.50;;;29.40;31.70;;;;;;5047146;28;20263;-86
2022/08/08 10:21:34;;;;;;;3.97;3.63;;;29.50;30.80;;;;;;5029614;28;20192;-87
2022/08/08 10:24:08;;;;;;;3.88;3.67;;;29.30;30.70;;;;;;5027934;28;20180;-88
2022/08/08 10:26:48;;;;;;;3.65;3.45;;;29.10;30.80;;;;;;5042424;28;20172;-86
2022/08/08 10:29:14;;;;;;;3.90;3.60;;;29.20;32.10;;;;;;5042289;28;20205;-87
2022/08/08 10:34:27;;;;;;;3.97;3.40;;;29.70;30.10;;;;;;5044058;28;20223;-87
2022/08/08 10:36:55;;;;;;;4.03;3.70;;;29.70;30.00;;;;;;5041375;28;20191;-87
2022/08/08 10:39:26;;;;;;;4.28;3.30;;;29.60;30.30;;;;;;5021515;28;20614;-87
2022/08/08 10:41:54;;;;;;;4.03;3.42;;;29.70;29.80;;;;;;5043580;28;20191;-87
2022/08/08 10:44:37;;;;;;;3.80;3.50;;;29.90;29.70;;;;;;5039901;28;20213;-87
2022/08/08 10:47:20;;;;;;;4.13;3.83;;;30.10;30.10;;;;;;5039283;28;20181;-87
2022/08/08 10:49:53;;;;;;;3.75;3.47;;;30.10;29.40;;;;;;5043634;28;20215;-88
2022/08/08 10:52:27;;;;;;;4.22;3.92;;;30.30;29.80;;;;;;5042464;28;20185;-86
2022/08/08 10:54:55;;;;;;;5.22;3.53;;;30.40;29.10;;;;;;5045953;28;20211;-87
2022/08/08 10:57:21;;;;;;;4.03;3.72;;;30.60;28.80;;;;;;5043970;28;20211;-86
2022/08/08 10:59:55;;;;;;;3.75;3.55;;;30.80;29.10;;;;;;5042761;28;20212;-87
2022/08/08 11:02:29;;;;;;;3.83;3.53;;;30.70;28.70;;;;;;5042283;28;20192;-88
2022/08/08 11:05:01;;;;;;;3.97;3.65;;;30.80;28.90;;;;;;5040405;28;20237;-88
2022/08/08 11:07:31;;;;;;;4.07;3.60;;;30.80;28.20;;;;;;5045904;28;20738;-87
2022/08/08 11:10:05;;;;;;;4.03;3.72;;;30.90;28.30;;;;;;5045522;28;20216;-88
2022/08/08 11:12:42;;;;;;;3.85;3.55;;;30.80;28.20;;;;;;5044508;28;20796;-88
2022/08/08 11:15:13;;;;;;;4.00;3.80;;;31.10;28.10;;;;;;5049252;28;20314;-88
2022/08/08 11:17:40;;;;;;;4.10;3.80;;;31.30;27.60;;;;;;5051725;28;20283;-87
2022/08/08 11:20:11;;;;;;;5.20;3.80;;;31.50;27.60;;;;;;5016547;28;20212;-88
2022/08/08 11:22:38;;;;;;;3.45;3.25;;;31.30;27.50;;;;;;5031066;28;20191;-88
2022/08/08 11:25:06;;;;;;;3.67;3.45;;;31.30;26.40;;;;;;5013757;28;20279;-89
2022/08/08 11:27:36;;;;;;;4.00;3.70;;;31.30;25.90;;;;;;5029799;28;20192;-88
2022/08/08 11:30:05;;;;;;;3.75;3.40;;;31.70;25.70;;;;;;5045246;28;20741;-88
2022/08/08 11:32:36;;;;;;;4.05;3.75;;;31.50;26.10;;;;;;5046913;28;20726;-90
2022/08/08 11:35:16;;;;;;;3.70;3.40;;;31.30;25.90;;;;;;5029650;28;20284;-89
2022/08/08 11:37:42;;;;;;;3.78;3.47;;;31.70;25.50;;;;;;5048271;28;20172;-87
2022/08/08 11:40:11;;;;;;;3.75;3.55;;;32.10;24.80;;;;;;5049449;28;20267;-89
2022/08/08 11:42:38;;;;;;;4.60;3.47;;;32.50;24.50;;;;;;5028859;28;20184;-90
2022/08/08 11:45:06;;;;;;;4.05;3.85;;;32.80;24.20;;;;;;5013048;28;20203;-90
2022/08/08 11:47:34;;;;;;;3.80;3.60;;;32.50;24.60;;;;;;5010024;28;20260;-89
2022/08/08 11:50:18;;;;;;;7.85;4.30;;;32.70;24.30;;;;;;5024878;28;20235;-90
2022/08/08 11:52:45;;;;;;;4.03;3.67;;;32.80;24.40;;;;;;5011468;28;20235;-90
2022/08/08 11:55:25;;;;;;;5.28;3.95;;;33.00;24.10;;;;;;5023807;28;20219;-89
2022/08/08 11:58:30;;;;;;;4.25;3.97;;;33.60;23.80;;;;;;5002162;28;20184;-90
2022/08/08 12:00:57;;;;;;;4.28;3.97;;;34.00;23.20;;;;;;5014056;28;20570;-89
2022/08/08 12:03:25;;;;;;;5.05;4.75;;;33.70;23.60;;;;;;5013646;28;20196;-90
2022/08/08 12:05:55;;;;;;;4.43;4.13;;;34.00;23.90;;;;;;5003195;28;20189;-90
2022/08/08 12:08:35;;;;;;;4.75;4.45;;;33.90;23.10;;;;;;5029329;28;20579;-89
2022/08/08 12:11:04;;;;;;;4.25;3.95;;;33.70;23.00;;;;;;5025777;28;20212;-90
2022/08/08 12:13:31;;;;;;;4.43;4.03;;;33.70;23.20;;;;;;5047635;28;20187;-90
2022/08/08 12:16:17;;;;;;;4.50;4.20;;;34.10;22.90;;;;;;5030006;28;20803;-89
2022/08/08 12:18:50;;;;;;;4.25;4.03;;;34.50;22.10;;;;;;4992960;28;20318;-90
2022/08/08 12:21:31;;;;;;;4.40;4.00;;;34.60;22.70;;;;;;5029367;28;20184;-90
2022/08/08 12:24:05;;;;;;;4.72;4.32;;;34.30;22.60;;;;;;5027523;28;20181;-89
2022/08/08 12:26:54;;;;;;;4.03;3.72;;;34.10;22.80;;;;;;5047970;28;20192;-89
2022/08/08 12:29:27;;;;;;;3.80;3.60;;;33.80;21.80;;;;;;4999056;28;20328;-90
2022/08/08 12:32:06;;;;;;;4.57;4.13;;;33.70;22.20;;;;;;5026156;28;20180;-88
2022/08/08 12:34:40;;;;;;;4.32;4.03;;;34.10;22.20;;;;;;5024367;28;20283;-89
2022/08/08 12:37:09;;;;;;;3.92;3.72;;;34.60;21.60;;;;;;5025355;28;20345;-89
2022/08/08 12:39:37;;;;;;;4.32;4.13;;;34.90;20.90;;;;;;5042559;28;20624;-90
2022/08/08 12:42:08;;;;;;;4.80;4.45;;;35.20;21.10;;;;;;5041177;28;20184;-89
2022/08/08 12:44:35;;;;;;;4.78;4.40;;;35.10;20.90;;;;;;5028488;28;20189;-90
2022/08/08 12:47:03;;;;;;;4.90;4.50;;;35.00;21.10;;;;;;5028092;28;20192;-91
2022/08/08 12:49:32;;;;;;;4.50;4.10;;;35.40;21.00;;;;;;5031463;28;20272;-90
2022/08/08 12:52:03;;;;;;;4.90;4.50;;;35.60;20.60;;;;;;5012451;28;20192;-91
2022/08/08 12:54:38;;;;;;;7.88;4.60;;;35.60;20.40;;;;;;5026536;28;20215;-90
2022/08/08 12:57:20;;;;;;;4.97;4.57;;;35.80;20.10;;;;;;5029709;28;20203;-91
2022/08/08 12:59:52;;;;;;;4.70;4.50;;;36.10;20.40;;;;;;5023213;28;20215;-89
2022/08/08 13:02:25;;;;;;;4.32;4.13;;;35.80;20.20;;;;;;5012847;28;20276;-90
2022/08/08 13:04:55;;;;;;;4.47;4.18;;;35.80;20.20;;;;;;5028015;28;20191;-90
2022/08/08 13:07:37;;;;;;;4.95;4.65;;;35.80;19.70;;;;;;5031435;28;20210;-90
2022/08/08 13:10:08;;;;;;;4.68;4.32;;;36.20;19.90;;;;;;5027610;28;20212;-90
2022/08/08 13:13:20;;;;;;;4.60;4.30;;;36.20;20.00;;;;;;5009304;28;20207;-90
2022/08/08 13:16:29;;;;;;;4.97;4.57;;;36.50;19.80;;;;;;4960003;28;20230;-90
2022/08/08 13:19:07;;;;;;;5.78;5.47;;;36.70;19.70;;;;;;5011662;28;20215;-89
2022/08/08 13:21:44;;;;;;;5.32;4.93;;;36.70;19.30;;;;;;5008900;28;20206;-89
2022/08/08 13:24:28;;;;;;;5.10;4.63;;;36.30;20.30;;;;;;5027399;28;20195;-90
2022/08/08 13:30:58;;;;;;;4.60;4.35;;;36.60;19.90;;;;;;4979843;28;20625;-89
2022/08/08 13:33:32;;;;;;;4.55;4.35;;;36.60;19.60;;;;;;4953625;28;20214;-90